createdAt,value
2018-04-08T00:00:26.957Z,0
2018-04-08T00:01:07.324Z,0
2018-04-08T00:01:47.730Z,0
2018-04-08T00:02:28.133Z,0
2018-04-08T00:03:08.549Z,0
2018-04-08T00:05:34.711Z,0
2018-04-08T00:06:14.773Z,0
2018-04-08T00:06:55.147Z,0
2018-04-08T00:07:35.588Z,0
2018-04-08T00:08:15.966Z,0
2018-04-08T00:08:56.554Z,0
2018-04-08T00:09:36.881Z,0
2018-04-08T00:10:17.284Z,0
2018-04-08T00:10:57.763Z,0
2018-04-08T00:11:38.093Z,0
2018-04-08T00:12:18.506Z,0
2018-04-08T00:12:58.924Z,0
2018-04-08T00:13:39.311Z,0
2018-04-08T00:14:19.762Z,0
2018-04-08T00:15:00.120Z,0
2018-04-08T00:15:40.534Z,0
2018-04-08T00:16:20.960Z,0
2018-04-08T00:17:01.448Z,0
2018-04-08T00:17:41.777Z,0
2018-04-08T00:20:11.346Z,0
2018-04-08T00:20:58.090Z,0
2018-04-08T00:21:51.347Z,0
2018-04-08T00:24:40.971Z,0
2018-04-08T00:25:19.842Z,0
2018-04-08T00:26:00.272Z,0
2018-04-08T00:26:40.698Z,0
2018-04-08T00:27:21.122Z,0
2018-04-08T00:28:01.532Z,0
2018-04-08T00:28:41.914Z,0
2018-04-08T00:29:22.347Z,0
2018-04-08T00:30:02.767Z,0
2018-04-08T00:30:43.159Z,0
2018-04-08T00:31:23.635Z,0
2018-04-08T00:32:03.960Z,0
2018-04-08T00:32:44.399Z,0
2018-04-08T00:33:24.808Z,0
2018-04-08T00:34:05.263Z,0
2018-04-08T00:34:45.604Z,0
2018-04-08T00:35:26.094Z,0
2018-04-08T00:39:51.837Z,0
2018-04-08T00:41:23.671Z,0
2018-04-08T00:42:04.198Z,0
2018-04-08T00:42:44.482Z,0
2018-04-08T00:43:24.859Z,0
2018-04-08T00:44:05.265Z,0
2018-04-08T00:44:45.682Z,0
2018-04-08T00:45:26.078Z,0
2018-04-08T00:46:06.470Z,0
2018-04-08T00:46:46.885Z,0
2018-04-08T00:47:27.317Z,0
2018-04-08T00:48:07.737Z,0
2018-04-08T00:48:48.107Z,0
2018-04-08T00:49:28.511Z,0
2018-04-08T00:50:08.960Z,0
2018-04-08T00:50:49.313Z,0
2018-04-08T00:51:29.732Z,0
2018-04-08T00:52:10.133Z,0
2018-04-08T00:52:50.536Z,0
2018-04-08T00:53:30.972Z,0
2018-04-08T00:54:11.351Z,0
2018-04-08T00:54:51.759Z,0
2018-04-08T00:55:32.236Z,0
2018-04-08T00:56:12.600Z,0
2018-04-08T00:56:53.002Z,0
2018-04-08T00:57:33.427Z,0
2018-04-08T00:58:13.831Z,0
2018-04-08T00:58:54.238Z,0
2018-04-08T01:05:07.556Z,0
2018-04-08T01:05:47.474Z,0
2018-04-08T01:07:48.954Z,0
2018-04-08T01:08:29.861Z,0
2018-04-08T01:09:10.285Z,0
2018-04-08T01:09:50.725Z,0
2018-04-08T01:10:31.152Z,0
2018-04-08T01:11:11.534Z,0
2018-04-08T01:11:51.958Z,0
2018-04-08T01:12:32.391Z,0
2018-04-08T01:13:12.813Z,0
2018-04-08T01:13:53.225Z,0
2018-04-08T01:14:33.635Z,0
2018-04-08T01:15:14.050Z,0
2018-04-08T01:15:54.438Z,0
2018-04-08T01:16:34.856Z,0
2018-04-08T01:17:15.276Z,0
2018-04-08T01:17:55.666Z,0
2018-04-08T01:18:36.097Z,0
2018-04-08T01:19:16.502Z,0
2018-04-08T01:19:56.925Z,0
2018-04-08T01:20:37.292Z,0
2018-04-08T01:21:17.714Z,0
2018-04-08T01:21:58.151Z,0
2018-04-08T01:22:38.497Z,0
2018-04-08T01:23:18.926Z,0
2018-04-08T01:23:59.355Z,0
2018-04-08T01:24:39.800Z,0
2018-04-08T01:25:20.204Z,0
2018-04-08T01:26:00.633Z,0
2018-04-08T01:26:41.060Z,0
2018-04-08T01:27:21.501Z,0
2018-04-08T01:28:01.913Z,0
2018-04-08T01:28:42.317Z,0
2018-04-08T01:29:22.732Z,0
2018-04-08T01:30:03.129Z,0
2018-04-08T01:30:43.536Z,0
2018-04-08T01:31:23.966Z,0
2018-04-08T01:32:04.403Z,0
2018-04-08T01:32:44.816Z,0
2018-04-08T01:33:25.250Z,0
2018-04-08T01:34:05.698Z,0
2018-04-08T01:34:46.083Z,0
2018-04-08T01:35:26.493Z,0
2018-04-08T01:36:06.911Z,0
2018-04-08T01:36:47.325Z,0
2018-04-08T01:37:27.750Z,0
2018-04-08T01:38:08.175Z,0
2018-04-08T01:38:48.616Z,0
2018-04-08T01:39:29.061Z,0
2018-04-08T01:40:09.493Z,0
2018-04-08T01:40:49.929Z,0
2018-04-08T01:41:30.334Z,0
2018-04-08T01:42:10.781Z,0
2018-04-08T01:42:51.180Z,0
2018-04-08T01:43:31.614Z,0
2018-04-08T01:44:12.048Z,0
2018-04-08T01:44:52.471Z,0
2018-04-08T01:45:32.890Z,0
2018-04-08T01:46:13.303Z,0
2018-04-08T01:46:53.724Z,0
2018-04-08T01:47:34.171Z,0
2018-04-08T01:48:14.616Z,0
2018-04-08T01:48:54.988Z,0
2018-04-08T01:49:35.392Z,0
2018-04-08T01:50:15.801Z,0
2018-04-08T01:50:56.209Z,0
2018-04-08T01:51:36.642Z,0
2018-04-08T01:52:17.083Z,0
2018-04-08T01:52:57.489Z,0
2018-04-08T01:53:37.901Z,0
2018-04-08T01:54:18.367Z,0
2018-04-08T01:56:39.729Z,0
2018-04-08T01:57:17.808Z,0
2018-04-08T01:57:58.206Z,0
2018-04-08T01:58:38.628Z,0
2018-04-08T01:59:19.027Z,0
2018-04-08T01:59:59.423Z,0
2018-04-08T02:00:39.814Z,0
2018-04-08T02:01:20.240Z,0
2018-04-08T02:03:46.277Z,0
2018-04-08T02:04:24.454Z,0
2018-04-08T02:05:04.834Z,0
2018-04-08T02:05:45.239Z,0
2018-04-08T02:06:25.680Z,0
2018-04-08T02:07:06.037Z,0
2018-04-08T02:07:46.507Z,0
2018-04-08T02:08:26.888Z,0
2018-04-08T02:09:07.305Z,0
2018-04-08T02:09:47.691Z,0
2018-04-08T02:10:28.075Z,0
2018-04-08T02:11:08.507Z,0
2018-04-08T02:11:48.914Z,0
2018-04-08T02:12:29.321Z,0
2018-04-08T02:13:09.719Z,0
2018-04-08T02:13:50.159Z,0
2018-04-08T02:14:30.530Z,0
2018-04-08T02:15:10.965Z,0
2018-04-08T02:15:51.369Z,0
2018-04-08T02:16:31.927Z,0
2018-04-08T02:17:12.301Z,0
2018-04-08T02:17:53.561Z,0
2018-04-08T02:18:33.997Z,0
2018-04-08T02:19:14.469Z,0
2018-04-08T02:19:54.850Z,0
2018-04-08T02:20:35.286Z,0
2018-04-08T02:21:15.796Z,0
2018-04-08T02:21:56.212Z,0
2018-04-08T02:24:37.963Z,0
2018-04-08T02:30:50.730Z,0
2018-04-08T02:33:31.955Z,0
2018-04-08T02:34:11.202Z,0
2018-04-08T02:34:51.286Z,0
2018-04-08T02:35:31.684Z,0
2018-04-08T02:36:12.074Z,0
2018-04-08T02:36:52.472Z,0
2018-04-08T02:37:32.874Z,0
2018-04-08T02:38:13.341Z,0
2018-04-08T02:38:53.694Z,0
2018-04-08T02:39:34.106Z,0
2018-04-08T02:40:14.632Z,0
2018-04-08T02:40:55.062Z,0
2018-04-08T02:41:35.457Z,0
2018-04-08T02:44:02.453Z,0
2018-04-08T02:44:48.260Z,0
2018-04-08T02:45:28.001Z,0
2018-04-08T02:46:08.445Z,0
2018-04-08T02:46:48.808Z,0
2018-04-08T02:47:29.213Z,0
2018-04-08T02:48:09.619Z,0
2018-04-08T02:48:50.037Z,0
2018-04-08T02:49:30.417Z,0
2018-04-08T02:50:10.864Z,0
2018-04-08T02:50:51.273Z,0
2018-04-08T02:51:31.677Z,0
2018-04-08T02:52:12.116Z,0
2018-04-08T02:52:52.530Z,0
2018-04-08T02:53:32.975Z,0
2018-04-08T02:54:13.944Z,0
2018-04-08T02:54:54.356Z,0
2018-04-08T02:55:34.775Z,0
2018-04-08T02:56:15.190Z,0
2018-04-08T02:56:55.635Z,0
2018-04-08T02:57:35.989Z,0
2018-04-08T02:58:16.512Z,0
2018-04-08T02:58:56.818Z,0
2018-04-08T02:59:37.462Z,0
2018-04-08T03:00:17.722Z,0
2018-04-08T03:00:58.050Z,0
2018-04-08T03:01:38.448Z,0
2018-04-08T03:02:18.994Z,0
2018-04-08T03:02:59.399Z,0
2018-04-08T03:03:39.815Z,0
2018-04-08T03:04:20.925Z,0
2018-04-08T03:05:01.364Z,0
2018-04-08T03:05:41.844Z,0
2018-04-08T03:06:22.193Z,0
2018-04-08T03:07:02.608Z,0
2018-04-08T03:07:43.084Z,0
2018-04-08T03:08:23.495Z,0
2018-04-08T03:09:03.916Z,0
2018-04-08T03:09:44.332Z,0
2018-04-08T03:10:24.721Z,0
2018-04-08T03:11:05.322Z,0
2018-04-08T03:11:45.549Z,0
2018-04-08T03:12:26.111Z,0
2018-04-08T03:13:06.560Z,0
2018-04-08T03:13:46.935Z,0
2018-04-08T03:14:27.290Z,0
2018-04-08T03:15:07.683Z,0
2018-04-08T03:15:48.080Z,0
2018-04-08T03:16:28.506Z,0
2018-04-08T03:17:08.875Z,0
2018-04-08T03:17:49.273Z,0
2018-04-08T03:18:29.765Z,0
2018-04-08T03:19:10.137Z,0
2018-04-08T03:19:50.586Z,0
2018-04-08T03:20:30.963Z,0
2018-04-08T03:21:11.377Z,0
2018-04-08T03:21:51.783Z,0
2018-04-08T03:22:32.183Z,0
2018-04-08T03:23:12.602Z,0
2018-04-08T03:23:52.987Z,0
2018-04-08T03:24:33.390Z,0
2018-04-08T03:25:13.799Z,0
2018-04-08T03:25:54.204Z,0
2018-04-08T03:26:34.617Z,0
2018-04-08T03:27:15.007Z,0
2018-04-08T03:29:33.468Z,0
2018-04-08T03:30:12.535Z,0
2018-04-08T03:30:52.991Z,0
2018-04-08T03:31:33.358Z,0
2018-04-08T03:32:13.795Z,0
2018-04-08T03:32:54.242Z,0
2018-04-08T03:33:34.616Z,0
2018-04-08T03:34:15.035Z,0
2018-04-08T03:34:55.458Z,0
2018-04-08T03:35:35.894Z,0
2018-04-08T03:36:16.320Z,0
2018-04-08T03:36:56.716Z,0
2018-04-08T03:37:37.121Z,0
2018-04-08T03:38:17.515Z,0
2018-04-08T03:38:57.924Z,0
2018-04-08T03:39:38.319Z,0
2018-04-08T03:40:18.719Z,0
2018-04-08T03:40:59.139Z,0
2018-04-08T03:43:27.293Z,0
2018-04-08T03:44:07.734Z,0
2018-04-08T03:44:48.149Z,0
2018-04-08T03:45:28.563Z,0
2018-04-08T03:46:08.978Z,0
2018-04-08T03:46:49.410Z,0
2018-04-08T03:47:29.831Z,0
2018-04-08T03:48:10.242Z,0
2018-04-08T03:48:50.662Z,0
2018-04-08T03:49:31.075Z,0
2018-04-08T03:50:11.495Z,0
2018-04-08T03:50:51.892Z,0
2018-04-08T03:51:32.316Z,0
2018-04-08T03:52:12.750Z,0
2018-04-08T03:52:53.172Z,0
2018-04-08T03:53:33.562Z,0
2018-04-08T03:54:14.059Z,0
2018-04-08T03:54:54.381Z,0
2018-04-08T03:55:34.799Z,0
2018-04-08T03:56:15.194Z,0
2018-04-08T03:56:55.592Z,0
2018-04-08T03:57:36.009Z,0
2018-04-08T03:58:16.450Z,0
2018-04-08T03:58:56.890Z,0
2018-04-08T03:59:37.305Z,0
2018-04-08T04:00:17.728Z,0
2018-04-08T04:00:58.145Z,0
2018-04-08T04:41:34.086Z,20
2018-04-08T04:42:14.506Z,20
2018-04-08T04:42:54.936Z,24
2018-04-08T04:43:35.360Z,24
2018-04-08T04:44:15.791Z,28
2018-04-08T04:44:56.208Z,28
2018-04-08T04:45:36.659Z,36
2018-04-08T04:46:17.084Z,36
2018-04-08T04:46:57.461Z,40
2018-04-08T04:47:37.865Z,44
2018-04-08T04:48:18.278Z,44
2018-04-08T04:48:58.690Z,52
2018-04-08T04:49:39.080Z,56
2018-04-08T04:50:19.486Z,60
2018-04-08T04:50:59.893Z,64
2018-04-08T04:53:13.165Z,84
2018-04-08T04:53:53.595Z,92
2018-04-08T04:54:34.026Z,100
2018-04-08T04:55:14.451Z,104
2018-04-08T04:55:54.864Z,112
2018-04-08T04:56:35.322Z,120
2018-04-08T04:57:15.710Z,128
2018-04-08T04:57:56.106Z,136
2018-04-08T04:58:36.511Z,148
2018-04-08T04:59:16.964Z,156
2018-04-08T04:59:57.313Z,168
2018-04-08T05:00:37.764Z,176
2018-04-08T05:01:18.150Z,184
2018-04-08T05:01:58.572Z,196
2018-04-08T05:02:39.065Z,212
2018-04-08T05:03:19.393Z,220
2018-04-08T05:03:59.793Z,236
2018-04-08T05:04:40.209Z,248
2018-04-08T05:05:20.632Z,264
2018-04-08T05:06:01.061Z,280
2018-04-08T05:06:41.489Z,296
2018-04-08T05:07:21.916Z,316
2018-04-08T05:10:04.519Z,388
2018-04-08T05:10:53.053Z,416
2018-04-08T05:11:33.046Z,444
2018-04-08T05:12:13.554Z,464
2018-04-08T05:12:53.914Z,492
2018-04-08T05:13:34.315Z,520
2018-04-08T05:14:14.711Z,544
2018-04-08T05:14:55.080Z,572
2018-04-08T05:15:35.527Z,600
2018-04-08T05:16:15.900Z,624
2018-04-08T05:16:56.292Z,652
2018-04-08T05:17:36.693Z,688
2018-04-08T05:18:17.077Z,712
2018-04-08T05:18:57.450Z,740
2018-04-08T05:19:37.917Z,764
2018-04-08T05:20:18.256Z,792
2018-04-08T05:20:58.665Z,824
2018-04-08T05:21:39.066Z,860
2018-04-08T05:22:19.480Z,888
2018-04-08T05:22:59.869Z,924
2018-04-08T05:23:40.314Z,964
2018-04-08T05:24:20.689Z,1012
2018-04-08T05:25:01.076Z,1080
2018-04-08T05:25:41.508Z,1156
2018-04-08T05:26:21.953Z,1224
2018-04-08T05:27:02.345Z,1280
2018-04-08T05:27:42.762Z,1336
2018-04-08T05:28:23.175Z,1396
2018-04-08T05:29:03.591Z,1456
2018-04-08T05:29:44.040Z,1524
2018-04-08T05:30:24.400Z,1584
2018-04-08T05:31:04.816Z,1656
2018-04-08T05:31:45.235Z,1732
2018-04-08T05:32:25.670Z,1808
2018-04-08T05:33:06.077Z,1868
2018-04-08T05:33:46.499Z,1932
2018-04-08T05:34:26.880Z,2020
2018-04-08T05:35:07.368Z,2100
2018-04-08T05:35:47.722Z,2200
2018-04-08T05:36:28.215Z,2296
2018-04-08T05:38:48.924Z,2656
2018-04-08T05:39:32.319Z,2780
2018-04-08T05:40:12.774Z,2892
2018-04-08T05:40:53.151Z,3044
2018-04-08T05:41:33.574Z,3168
2018-04-08T05:42:14.014Z,3300
2018-04-08T05:42:54.419Z,3428
2018-04-08T05:43:34.846Z,3520
2018-04-08T05:44:15.270Z,3608
2018-04-08T05:44:55.678Z,3720
2018-04-08T05:45:36.086Z,3848
2018-04-08T05:46:16.503Z,4000
2018-04-08T05:46:56.916Z,4176
2018-04-08T05:47:37.328Z,4252
2018-04-08T05:48:17.748Z,4264
2018-04-08T05:48:58.175Z,4312
2018-04-08T05:49:38.601Z,4388
2018-04-08T05:50:19.035Z,4468
2018-04-08T05:50:59.467Z,4500
2018-04-08T05:51:39.910Z,4612
2018-04-08T05:52:20.342Z,4668
2018-04-08T05:53:00.748Z,4760
2018-04-08T05:53:41.189Z,4828
2018-04-08T05:54:21.590Z,4856
2018-04-08T05:55:02.016Z,4924
2018-04-08T05:55:42.431Z,5028
2018-04-08T05:56:22.876Z,5124
2018-04-08T05:57:03.300Z,5080
2018-04-08T05:57:43.678Z,5136
2018-04-08T05:58:24.105Z,5008
2018-04-08T05:59:04.526Z,4280
2018-04-08T05:59:44.952Z,3108
2018-04-08T06:00:25.376Z,2784
2018-04-08T06:01:05.806Z,2636
2018-04-08T06:01:46.258Z,2608
2018-04-08T06:02:26.709Z,2648
2018-04-08T06:03:07.085Z,2712
2018-04-08T06:03:47.538Z,2792
2018-04-08T06:04:27.919Z,2916
2018-04-08T06:05:08.341Z,3208
2018-04-08T06:05:48.750Z,3452
2018-04-08T06:06:29.158Z,3560
2018-04-08T06:07:09.580Z,4348
2018-04-08T06:07:49.989Z,5704
2018-04-08T06:08:30.381Z,6032
2018-04-08T06:09:10.795Z,7684
2018-04-08T06:09:51.232Z,6896
2018-04-08T06:10:31.648Z,10260
2018-04-08T06:11:12.060Z,10368
2018-04-08T06:11:52.461Z,10120
2018-04-08T06:12:32.889Z,7380
2018-04-08T06:13:13.304Z,5104
2018-04-08T06:13:53.735Z,6092
2018-04-08T06:14:34.175Z,6540
2018-04-08T06:15:14.589Z,5272
2018-04-08T06:15:55.048Z,5240
2018-04-08T06:16:35.426Z,5352
2018-04-08T06:17:15.832Z,4580
2018-04-08T06:17:56.225Z,4520
2018-04-08T06:18:36.637Z,5032
2018-04-08T06:19:17.081Z,8680
2018-04-08T06:19:57.478Z,8548
2018-04-08T06:20:37.869Z,7988
2018-04-08T06:21:18.264Z,4200
2018-04-08T06:21:58.654Z,3844
2018-04-08T06:22:39.076Z,3700
2018-04-08T06:23:19.453Z,3660
2018-04-08T06:23:59.868Z,3684
2018-04-08T06:24:40.276Z,3732
2018-04-08T06:25:20.690Z,3768
2018-04-08T06:26:01.103Z,4104
2018-04-08T06:26:41.520Z,4000
2018-04-08T06:27:21.930Z,4004
2018-04-08T06:28:02.346Z,3856
2018-04-08T06:28:42.748Z,3872
2018-04-08T06:29:23.167Z,3780
2018-04-08T06:30:03.615Z,3820
2018-04-08T06:30:43.993Z,4028
2018-04-08T06:31:24.422Z,5732
2018-04-08T06:32:04.817Z,6516
2018-04-08T06:32:45.212Z,6968
2018-04-08T06:33:25.616Z,5680
2018-04-08T06:34:06.045Z,6772
2018-04-08T06:34:46.416Z,6072
2018-04-08T06:35:26.819Z,5196
2018-04-08T06:36:07.212Z,4976
2018-04-08T06:36:47.620Z,6000
2018-04-08T06:37:28.015Z,4224
2018-04-08T06:38:08.439Z,4704
2018-04-08T06:38:48.857Z,4136
2018-04-08T06:39:29.290Z,4736
2018-04-08T06:40:09.682Z,7248
2018-04-08T06:40:50.124Z,8248
2018-04-08T06:41:30.546Z,8512
2018-04-08T06:42:10.924Z,8504
2018-04-08T06:42:51.368Z,8364
2018-04-08T06:43:31.812Z,8320
2018-04-08T06:44:12.147Z,8408
2018-04-08T06:44:52.563Z,8400
2018-04-08T06:45:32.996Z,8476
2018-04-08T06:46:13.388Z,8856
2018-04-08T06:46:53.808Z,9120
2018-04-08T06:47:34.253Z,9104
2018-04-08T06:48:14.627Z,9056
2018-04-08T06:48:55.046Z,9124
2018-04-08T06:49:35.439Z,9264
2018-04-08T06:50:15.859Z,9400
2018-04-08T06:50:56.244Z,9272
2018-04-08T06:51:36.668Z,8008
2018-04-08T06:52:17.084Z,5276
2018-04-08T06:52:57.599Z,6576
2018-04-08T06:53:37.916Z,5140
2018-04-08T06:54:18.358Z,4896
2018-04-08T06:54:58.732Z,4068
2018-04-08T06:55:39.144Z,3824
2018-04-08T06:56:19.769Z,3580
2018-04-08T06:56:59.999Z,3400
2018-04-08T06:57:40.390Z,3252
2018-04-08T06:59:58.728Z,2732
2018-04-08T07:00:38.156Z,2588
2018-04-08T07:01:18.658Z,2464
2018-04-08T07:01:58.990Z,2376
2018-04-08T07:02:40.451Z,2300
2018-04-08T07:03:20.721Z,2232
2018-04-08T07:04:01.124Z,2192
2018-04-08T07:04:41.538Z,2148
2018-04-08T07:05:22.022Z,2080
2018-04-08T07:07:53.455Z,1848
2018-04-08T07:08:33.846Z,1808
2018-04-08T07:09:14.230Z,1768
2018-04-08T07:09:54.646Z,1728
2018-04-08T07:10:35.084Z,1700
2018-04-08T07:11:15.546Z,1684
2018-04-08T07:11:55.893Z,1656
2018-04-08T07:12:36.263Z,1628
2018-04-08T07:13:16.681Z,1604
2018-04-08T07:13:57.104Z,1572
2018-04-08T07:14:37.844Z,1532
2018-04-08T07:15:18.162Z,1496
2018-04-08T07:15:58.575Z,1464
2018-04-08T07:16:39.046Z,1436
2018-04-08T07:17:19.379Z,1412
2018-04-08T07:17:59.791Z,1400
2018-04-08T07:18:40.197Z,1408
2018-04-08T07:19:20.627Z,1416
2018-04-08T07:20:01.015Z,1456
2018-04-08T07:20:41.434Z,1496
2018-04-08T07:21:21.844Z,1524
2018-04-08T07:22:02.281Z,1480
2018-04-08T07:22:42.633Z,1468
2018-04-08T07:23:23.086Z,1460
2018-04-08T07:24:03.503Z,1468
2018-04-08T07:24:43.972Z,1476
2018-04-08T07:25:24.343Z,1480
2018-04-08T07:26:04.762Z,1472
2018-04-08T07:26:45.200Z,1472
2018-04-08T07:27:25.605Z,1476
2018-04-08T07:28:06.011Z,1484
2018-04-08T07:30:46.783Z,1636
2018-04-08T07:31:25.058Z,1688
2018-04-08T07:32:05.473Z,1728
2018-04-08T07:32:45.908Z,1772
2018-04-08T07:33:26.309Z,1812
2018-04-08T07:34:06.667Z,1852
2018-04-08T07:34:47.077Z,1928
2018-04-08T07:35:27.511Z,2072
2018-04-08T07:36:07.927Z,2872
2018-04-08T07:36:48.385Z,2540
2018-04-08T07:37:28.770Z,3648
2018-04-08T07:38:09.182Z,2912
2018-04-08T07:38:49.602Z,2804
2018-04-08T07:41:02.878Z,3080
2018-04-08T07:41:43.276Z,3132
2018-04-08T07:42:23.714Z,3168
2018-04-08T07:44:54.564Z,3344
2018-04-08T07:45:34.989Z,3400
2018-04-08T07:46:15.407Z,3448
2018-04-08T07:46:55.828Z,3480
2018-04-08T07:47:36.227Z,3492
2018-04-08T07:48:17.199Z,3496
2018-04-08T07:48:57.559Z,3512
2018-04-08T07:49:37.964Z,3412
2018-04-08T07:50:18.386Z,3320
2018-04-08T07:50:58.786Z,3236
2018-04-08T07:51:39.173Z,3176
2018-04-08T07:52:19.578Z,3124
2018-04-08T07:52:59.999Z,3104
2018-04-08T07:53:40.401Z,3080
2018-04-08T07:54:20.847Z,3108
2018-04-08T07:55:01.282Z,3104
2018-04-08T07:55:41.698Z,2980
2018-04-08T07:56:22.069Z,2896
2018-04-08T07:57:02.455Z,2856
2018-04-08T07:57:42.887Z,2788
2018-04-08T07:58:23.318Z,2776
2018-04-08T07:59:03.712Z,2752
2018-04-08T07:59:44.129Z,2724
2018-04-08T08:00:24.580Z,2720
2018-04-08T08:01:04.993Z,2720
2018-04-08T08:01:45.375Z,2724
2018-04-08T08:02:25.808Z,2712
2018-04-08T08:03:06.176Z,2700
2018-04-08T08:03:47.940Z,2724
2018-04-08T08:04:28.219Z,2768
2018-04-08T08:05:08.647Z,2812
2018-04-08T08:05:49.075Z,2856
2018-04-08T08:06:29.510Z,2880
2018-04-08T08:07:10.029Z,2928
2018-04-08T08:07:50.648Z,2940
2018-04-08T08:08:31.048Z,2940
2018-04-08T08:09:11.474Z,2892
2018-04-08T08:09:51.912Z,2852
2018-04-08T08:10:32.306Z,2792
2018-04-08T08:11:12.811Z,2740
2018-04-08T08:11:53.162Z,2724
2018-04-08T08:12:33.576Z,2712
2018-04-08T08:13:14.029Z,2684
2018-04-08T08:24:33.998Z,3992
2018-04-08T08:25:14.809Z,4084
2018-04-08T08:25:55.246Z,4172
2018-04-08T08:26:36.382Z,4296
2018-04-08T08:27:16.481Z,4092
2018-04-08T08:27:56.870Z,4204
2018-04-08T08:28:37.264Z,4228
2018-04-08T08:29:17.690Z,4112
2018-04-08T08:29:58.105Z,4360
2018-04-08T08:30:38.544Z,4332
2018-04-08T08:31:18.990Z,4312
2018-04-08T08:31:59.378Z,4344
2018-04-08T08:32:39.827Z,4260
2018-04-08T08:33:20.197Z,4248
2018-04-08T08:34:00.675Z,4192
2018-04-08T08:34:41.076Z,4252
2018-04-08T08:35:21.471Z,3972
2018-04-08T08:36:01.900Z,3936
2018-04-08T08:36:42.331Z,3868
2018-04-08T08:37:22.781Z,4040
2018-04-08T08:38:03.145Z,3788
2018-04-08T08:38:43.765Z,3760
2018-04-08T08:39:24.275Z,3964
2018-04-08T08:40:04.590Z,3780
2018-04-08T08:40:45.020Z,3984
2018-04-08T08:41:25.453Z,3876
2018-04-08T08:42:05.881Z,3860
2018-04-08T08:42:46.296Z,4160
2018-04-08T08:43:26.707Z,4180
2018-04-08T08:44:07.122Z,4204
2018-04-08T08:44:47.524Z,4188
2018-04-08T08:45:27.933Z,4136
2018-04-08T08:46:08.399Z,4112
2018-04-08T08:46:48.771Z,4112
2018-04-08T08:47:29.188Z,4120
2018-04-08T08:48:09.773Z,4132
2018-04-08T08:48:50.091Z,4112
2018-04-08T08:49:30.510Z,4092
2018-04-08T08:50:10.919Z,4048
2018-04-08T08:50:51.333Z,3984
2018-04-08T08:51:31.796Z,3896
2018-04-08T08:52:12.208Z,3832
2018-04-08T08:52:52.656Z,3776
2018-04-08T08:53:33.089Z,3724
2018-04-08T08:54:13.490Z,3664
2018-04-08T08:54:54.000Z,3628
2018-04-08T08:55:34.366Z,3600
2018-04-08T08:56:14.958Z,3604
2018-04-08T08:56:55.309Z,3640
2018-04-08T08:57:35.754Z,3676
2018-04-08T08:58:16.136Z,3692
2018-04-08T08:58:56.520Z,3704
2018-04-08T08:59:36.971Z,3692
2018-04-08T09:00:17.361Z,3680
2018-04-08T09:00:57.795Z,3660
2018-04-08T09:01:38.220Z,3616
2018-04-08T09:02:18.666Z,3568
2018-04-08T09:02:59.175Z,3528
2018-04-08T09:03:39.666Z,3492
2018-04-08T09:04:20.024Z,3440
2018-04-08T09:06:52.932Z,3548
2018-04-08T09:07:33.351Z,3664
2018-04-08T09:08:13.769Z,3756
2018-04-08T09:08:54.212Z,3860
2018-04-08T09:09:34.648Z,3964
2018-04-08T09:10:15.069Z,4068
2018-04-08T09:10:55.518Z,4132
2018-04-08T09:11:35.945Z,4136
2018-04-08T09:12:16.376Z,4080
2018-04-08T09:12:56.816Z,3992
2018-04-08T09:13:37.196Z,3940
2018-04-08T09:14:17.707Z,3868
2018-04-08T09:14:58.030Z,3804
2018-04-08T09:15:38.420Z,3740
2018-04-08T09:16:18.835Z,3692
2018-04-08T09:16:59.243Z,3620
2018-04-08T09:17:39.667Z,3564
2018-04-08T09:18:20.118Z,3516
2018-04-08T09:19:00.480Z,3424
2018-04-08T09:19:40.912Z,3444
2018-04-08T09:20:21.994Z,3440
2018-04-08T09:21:02.384Z,3440
2018-04-08T09:21:42.810Z,3428
2018-04-08T09:22:23.235Z,3416
2018-04-08T09:23:03.629Z,3380
2018-04-08T09:23:44.070Z,3324
2018-04-08T09:24:24.589Z,3248
2018-04-08T09:25:05.034Z,3176
2018-04-08T09:25:45.399Z,3108
2018-04-08T09:26:25.820Z,3040
2018-04-08T09:27:06.231Z,2988
2018-04-08T09:27:46.649Z,2952
2018-04-08T09:28:27.068Z,2908
2018-04-08T09:29:07.541Z,2848
2018-04-08T09:29:47.957Z,2808
2018-04-08T09:30:28.363Z,2788
2018-04-08T09:31:08.875Z,2792
2018-04-08T09:31:49.180Z,2812
2018-04-08T09:32:29.626Z,2840
2018-04-08T09:33:10.397Z,2852
2018-04-08T09:33:50.805Z,2832
2018-04-08T09:34:31.218Z,2776
2018-04-08T09:35:11.647Z,2736
2018-04-08T09:35:52.039Z,2700
2018-04-08T09:36:32.462Z,2680
2018-04-08T09:37:12.843Z,2660
2018-04-08T09:39:45.601Z,2596
2018-04-08T09:40:25.778Z,2584
2018-04-08T09:41:06.252Z,2580
2018-04-08T09:41:46.636Z,2564
2018-04-08T09:44:12.738Z,2520
2018-04-08T09:44:51.083Z,2512
2018-04-08T09:45:31.494Z,2504
2018-04-08T09:46:11.896Z,2492
2018-04-08T09:46:52.332Z,2480
2018-04-08T09:47:32.745Z,2468
2018-04-08T09:48:13.217Z,2460
2018-04-08T09:48:53.569Z,2448
2018-04-08T09:49:33.983Z,2436
2018-04-08T09:50:14.432Z,2424
2018-04-08T09:54:45.493Z,2360
2018-04-08T09:55:26.435Z,2352
2018-04-08T09:56:06.845Z,2340
2018-04-08T09:58:13.362Z,2320
2018-04-08T09:58:53.972Z,2308
2018-04-08T09:59:34.393Z,2300
2018-04-08T10:00:14.834Z,2292
2018-04-08T10:00:55.256Z,2284
2018-04-08T10:01:35.734Z,2276
2018-04-08T10:02:16.144Z,2272
2018-04-08T10:02:56.569Z,2260
2018-04-08T10:42:09.360Z,2032
2018-04-08T10:42:49.788Z,2024
2018-04-08T10:43:30.224Z,2024
2018-04-08T10:44:10.699Z,2024
2018-04-08T10:44:51.087Z,2020
2018-04-08T10:45:31.526Z,2016
2018-04-08T10:46:11.959Z,2016
2018-04-08T10:46:52.439Z,2016
2018-04-08T10:47:32.818Z,2012
2018-04-08T10:48:13.336Z,2012
2018-04-08T10:48:53.670Z,2008
2018-04-08T10:49:34.048Z,2004
2018-04-08T10:50:14.492Z,2000
2018-04-08T10:50:54.898Z,2004
2018-04-08T10:51:35.405Z,1996
2018-04-08T10:52:15.753Z,1996
2018-04-08T10:52:56.188Z,1944
2018-04-08T10:53:36.567Z,1568
2018-04-08T10:54:16.965Z,1820
2018-04-08T10:54:57.405Z,1632
2018-04-08T10:55:37.830Z,1504
2018-04-08T10:56:18.277Z,1496
2018-04-08T10:56:58.711Z,1832
2018-04-08T10:57:39.136Z,1896
2018-04-08T10:58:19.576Z,1988
2018-04-08T10:59:00.017Z,1988
2018-04-08T10:59:40.435Z,2000
2018-04-08T11:00:20.871Z,2000
2018-04-08T11:01:01.272Z,1976
2018-04-08T11:01:41.722Z,1820
2018-04-08T11:02:22.196Z,1840
2018-04-08T11:03:02.549Z,1664
2018-04-08T11:03:42.968Z,1712
2018-04-08T11:04:23.403Z,1900
2018-04-08T11:05:03.838Z,1992
2018-04-08T11:05:44.239Z,1960
2018-04-08T11:06:24.651Z,1956
2018-04-08T11:07:05.099Z,1900
2018-04-08T11:07:45.524Z,1916
2018-04-08T11:10:05.072Z,1756
2018-04-08T11:10:45.827Z,1776
2018-04-08T11:11:26.259Z,1656
2018-04-08T11:12:06.690Z,1744
2018-04-08T11:12:47.131Z,1684
2018-04-08T11:13:27.580Z,1740
2018-04-08T11:14:08.023Z,1576
2018-04-08T11:14:48.468Z,1476
2018-04-08T11:15:28.895Z,1444
2018-04-08T11:16:09.318Z,1456
2018-04-08T11:16:49.812Z,1472
2018-04-08T11:17:30.167Z,1516
2018-04-08T11:18:10.626Z,1500
2018-04-08T11:18:51.061Z,1504
2018-04-08T11:19:31.492Z,1508
2018-04-08T11:20:11.932Z,1512
2018-04-08T11:20:52.379Z,1520
2018-04-08T11:21:32.820Z,1532
2018-04-08T11:22:13.244Z,1548
2018-04-08T11:22:53.680Z,1552
2018-04-08T11:23:34.081Z,1536
2018-04-08T11:24:14.488Z,1540
2018-04-08T11:24:54.913Z,1544
2018-04-08T11:25:35.346Z,1544
2018-04-08T11:26:15.821Z,1552
2018-04-08T11:26:56.229Z,1560
2018-04-08T11:27:36.657Z,1584
2018-04-08T11:28:17.089Z,1608
2018-04-08T11:28:57.485Z,1636
2018-04-08T11:29:38.119Z,1668
2018-04-08T11:30:18.361Z,1716
2018-04-08T11:30:58.797Z,1736
2018-04-08T11:31:39.222Z,1768
2018-04-08T11:32:19.645Z,1816
2018-04-08T11:33:00.080Z,1856
2018-04-08T11:33:40.507Z,1884
2018-04-08T11:34:20.943Z,1896
2018-04-08T11:35:01.382Z,1896
2018-04-08T11:35:41.824Z,1908
2018-04-08T11:36:22.271Z,1916
2018-04-08T11:37:02.708Z,1900
2018-04-08T11:37:43.152Z,1876
2018-04-08T11:38:23.575Z,1844
2018-04-08T11:39:04.022Z,1816
2018-04-08T11:39:44.466Z,1788
2018-04-08T11:40:24.897Z,1772
2018-04-08T11:41:05.332Z,1832
2018-04-08T11:41:45.782Z,1824
2018-04-08T11:42:26.215Z,1864
2018-04-08T11:43:06.643Z,1988
2018-04-08T11:43:47.054Z,1900
2018-04-08T11:44:27.483Z,1928
2018-04-08T11:45:07.901Z,1908
2018-04-08T11:45:48.341Z,2000
2018-04-08T11:46:28.777Z,2040
2018-04-08T11:47:09.191Z,2080
2018-04-08T11:47:49.740Z,2224
2018-04-08T11:48:30.039Z,2184
2018-04-08T11:49:10.452Z,2176
2018-04-08T11:49:50.849Z,2176
2018-04-08T11:50:31.251Z,2172
2018-04-08T11:51:11.665Z,1900
2018-04-08T11:51:52.076Z,1984